createdAt,value
2024-04-25T00:00:20.876Z,1.67
2024-04-25T00:02:49.812Z,1.66
2024-04-25T00:05:16.642Z,1.64
2024-04-25T00:07:43.351Z,1.66
2024-04-25T00:10:10.131Z,1.68
2024-04-25T00:12:36.845Z,1.69
2024-04-25T00:15:04.694Z,1.70
2024-04-25T00:17:31.489Z,1.73
2024-04-25T00:19:58.255Z,1.71
2024-04-25T00:22:24.993Z,1.72
2024-04-25T00:24:51.704Z,1.70
2024-04-25T00:27:18.417Z,1.78
2024-04-25T00:29:45.141Z,1.79
2024-04-25T00:32:11.895Z,1.79
2024-04-25T00:34:38.628Z,1.79
2024-04-25T00:37:05.351Z,1.80
2024-04-25T00:39:32.105Z,1.78
2024-04-25T00:41:58.784Z,1.78
2024-04-25T00:44:26.069Z,1.74
2024-04-25T00:46:53.324Z,1.75
2024-04-25T00:49:20.590Z,1.71
2024-04-25T00:51:47.958Z,1.72
2024-04-25T00:54:14.652Z,1.71
2024-04-25T00:56:42.625Z,1.72
2024-04-25T00:59:09.710Z,1.72
2024-04-25T01:01:37.956Z,1.72
2024-04-25T01:04:05.286Z,1.76
2024-04-25T01:06:33.792Z,1.78
2024-04-25T01:09:01.356Z,1.75
2024-04-25T01:11:30.194Z,1.74
2024-04-25T01:13:57.159Z,1.76
2024-04-25T01:16:23.964Z,1.74
2024-04-25T01:18:50.707Z,1.72
2024-04-25T01:21:17.441Z,1.72
2024-04-25T01:23:45.055Z,1.71
2024-04-25T01:26:12.581Z,1.73
2024-04-25T01:28:40.060Z,1.73
2024-04-25T01:31:07.663Z,1.70
2024-04-25T01:33:36.100Z,1.77
2024-04-25T01:36:03.082Z,1.81
2024-04-25T01:38:29.857Z,1.80
2024-04-25T01:40:56.520Z,1.83
2024-04-25T01:43:23.322Z,1.81
2024-04-25T01:45:50.130Z,1.83
2024-04-25T01:48:17.048Z,1.81
2024-04-25T01:50:43.864Z,1.86
2024-04-25T01:53:10.689Z,1.85
2024-04-25T01:55:37.992Z,1.88
2024-04-25T01:58:04.963Z,1.88
2024-04-25T02:00:32.336Z,1.88
2024-04-25T02:02:59.171Z,1.87
2024-04-25T02:05:25.985Z,1.85
2024-04-25T02:07:52.701Z,1.88
2024-04-25T02:10:19.433Z,1.86
2024-04-25T02:12:46.193Z,1.86
2024-04-25T02:15:13.032Z,1.84
2024-04-25T02:17:41.206Z,1.84
2024-04-25T02:20:28.928Z,1.88
2024-04-25T02:23:15.909Z,1.87
2024-04-25T02:25:42.764Z,1.83
2024-04-25T02:28:09.486Z,1.85
2024-04-25T02:30:36.214Z,1.84
2024-04-25T02:33:03.024Z,1.87
2024-04-25T02:35:29.832Z,1.86
2024-04-25T02:37:56.531Z,1.83
2024-04-25T02:40:23.242Z,1.81
2024-04-25T02:42:49.972Z,1.80
2024-04-25T02:45:16.662Z,1.84
2024-04-25T02:47:43.484Z,1.81
2024-04-25T02:50:11.885Z,1.75
2024-04-25T02:52:39.597Z,1.69
2024-04-25T02:55:06.866Z,1.68
2024-04-25T02:57:33.737Z,1.61
2024-04-25T03:00:00.666Z,1.58
2024-04-25T03:02:29.314Z,1.55
2024-04-25T03:04:56.204Z,1.53
2024-04-25T03:07:22.911Z,1.55
2024-04-25T03:09:49.597Z,1.56
2024-04-25T03:12:16.329Z,1.53
2024-04-25T03:14:43.332Z,1.54
2024-04-25T03:17:10.097Z,1.45
2024-04-25T03:19:36.811Z,1.44
2024-04-25T03:22:03.547Z,1.41
2024-04-25T03:24:30.322Z,1.45
2024-04-25T03:26:56.974Z,1.43
2024-04-25T03:29:23.683Z,1.47
2024-04-25T03:31:51.576Z,1.46
2024-04-25T03:34:18.364Z,1.49
2024-04-25T03:36:45.878Z,1.46
2024-04-25T03:39:14.137Z,1.49
2024-04-25T03:41:40.931Z,1.46
2024-04-25T03:44:07.662Z,1.50
2024-04-25T03:46:34.346Z,1.48
2024-04-25T03:49:01.124Z,1.47
2024-04-25T03:51:27.865Z,1.47
2024-04-25T03:53:54.950Z,1.47
2024-04-25T03:56:21.694Z,1.48
2024-04-25T03:58:48.359Z,1.49
2024-04-25T04:01:15.152Z,1.50
2024-04-25T04:03:41.987Z,1.50
2024-04-25T04:06:09.088Z,1.48
2024-04-25T04:08:37.435Z,1.49
2024-04-25T04:11:04.500Z,1.47
2024-04-25T04:13:33.152Z,1.47
2024-04-25T04:15:59.943Z,1.45
2024-04-25T04:18:26.692Z,1.45
2024-04-25T04:20:53.485Z,1.42
2024-04-25T04:23:20.263Z,1.42
2024-04-25T04:25:46.995Z,1.43
2024-04-25T04:28:15.628Z,1.39
2024-04-25T04:30:42.959Z,1.36
2024-04-25T04:33:09.977Z,1.36
2024-04-25T04:35:36.975Z,1.31
2024-04-25T04:38:03.831Z,1.33
2024-04-25T04:40:30.575Z,1.36
2024-04-25T04:42:57.293Z,1.37
2024-04-25T04:45:24.016Z,1.34
2024-04-25T04:47:50.792Z,1.37
2024-04-25T04:50:20.798Z,1.34
2024-04-25T04:52:47.797Z,1.40
2024-04-25T04:55:15.049Z,1.42
2024-04-25T04:57:41.925Z,1.39
2024-04-25T05:00:09.025Z,1.44
2024-04-25T05:02:35.852Z,1.44
2024-04-25T05:05:02.747Z,1.48
2024-04-25T05:07:29.429Z,1.52
2024-04-25T05:09:56.144Z,1.54
2024-04-25T05:12:22.894Z,1.55
2024-04-25T05:14:49.579Z,1.59
2024-04-25T05:17:16.407Z,1.64
2024-04-25T05:19:43.230Z,1.72
2024-04-25T05:22:09.951Z,1.79
2024-04-25T05:24:36.651Z,1.87
2024-04-25T05:27:03.413Z,1.96
2024-04-25T05:29:33.084Z,2.01
2024-04-25T05:32:00.783Z,2.09
2024-04-25T05:34:27.524Z,2.10
2024-04-25T05:36:54.248Z,2.19
2024-04-25T05:39:21.202Z,2.26
2024-04-25T05:41:47.978Z,2.31
2024-04-25T05:44:14.694Z,2.39
2024-04-25T05:46:41.458Z,2.45
2024-04-25T05:49:08.142Z,2.55
2024-04-25T05:51:34.868Z,2.67
2024-04-25T05:54:01.572Z,2.74
2024-04-25T05:56:28.298Z,2.76
2024-04-25T05:58:58.286Z,2.81
2024-04-25T06:01:25.084Z,2.89
2024-04-25T06:03:51.912Z,2.92
2024-04-25T06:06:18.668Z,3.01
2024-04-25T06:08:45.466Z,3.06
2024-04-25T06:11:12.677Z,3.12
2024-04-25T06:13:39.453Z,3.09
2024-04-25T06:16:07.293Z,3.12
2024-04-25T06:18:34.115Z,3.17
2024-04-25T06:21:00.971Z,3.28
2024-04-25T06:23:27.750Z,3.44
2024-04-25T06:25:54.480Z,3.59
2024-04-25T06:28:21.182Z,3.72
2024-04-25T06:30:47.891Z,3.76
2024-04-25T06:33:14.674Z,3.86
2024-04-25T06:35:41.493Z,4.03
2024-04-25T06:38:10.297Z,4.10
2024-04-25T06:40:36.995Z,4.29
2024-04-25T06:43:03.764Z,4.08
2024-04-25T06:45:30.556Z,4.22
2024-04-25T06:47:57.408Z,4.26
2024-04-25T06:50:24.548Z,4.40
2024-04-25T06:52:51.283Z,4.66
2024-04-25T06:55:19.068Z,4.70
2024-04-25T06:57:45.726Z,4.84
2024-04-25T07:00:13.099Z,4.96
2024-04-25T07:02:40.470Z,4.92
2024-04-25T07:05:07.246Z,5.05
2024-04-25T07:07:34.381Z,5.17
2024-04-25T07:10:01.758Z,5.28
2024-04-25T07:12:31.593Z,5.20
2024-04-25T07:14:58.444Z,5.28
2024-04-25T07:17:25.279Z,5.29
2024-04-25T07:19:52.139Z,5.36
2024-04-25T07:22:18.922Z,5.41
2024-04-25T07:24:45.680Z,5.47
2024-04-25T07:27:12.428Z,5.69
2024-04-25T07:29:45.219Z,5.70
2024-04-25T07:32:12.378Z,5.60
2024-04-25T07:34:39.089Z,5.59
2024-04-25T07:37:05.753Z,5.48
2024-04-25T07:39:32.569Z,5.56
2024-04-25T07:41:59.329Z,5.55
2024-04-25T07:44:26.208Z,5.74
2024-04-25T07:46:53.175Z,5.88
2024-04-25T07:49:21.522Z,6.01
2024-04-25T07:51:48.360Z,5.93
2024-04-25T07:54:15.121Z,6.15
2024-04-25T07:56:41.946Z,6.23
2024-04-25T07:59:08.781Z,6.34
2024-04-25T08:01:35.525Z,6.56
2024-04-25T08:04:02.318Z,6.64
2024-04-25T08:06:28.965Z,6.72
2024-04-25T08:08:55.656Z,6.81
2024-04-25T08:11:22.442Z,6.65
2024-04-25T08:13:49.157Z,6.67
2024-04-25T08:16:15.944Z,6.85
2024-04-25T08:18:44.388Z,6.90
2024-04-25T08:21:11.102Z,6.74
2024-04-25T08:23:37.860Z,6.08
2024-04-25T08:26:05.437Z,6.52
2024-04-25T08:28:32.829Z,6.78
2024-04-25T08:30:59.544Z,6.81
2024-04-25T08:33:26.365Z,7.01
2024-04-25T08:35:53.170Z,7.18
2024-04-25T08:38:19.985Z,7.02
2024-04-25T08:40:50.752Z,7.47
2024-04-25T08:43:17.439Z,7.06
2024-04-25T08:45:44.208Z,6.74
2024-04-25T08:48:14.482Z,6.87
2024-04-25T08:50:41.611Z,6.81
2024-04-25T08:53:09.020Z,6.88
2024-04-25T08:55:36.627Z,6.88
2024-04-25T08:58:06.333Z,6.96
2024-04-25T09:00:33.242Z,7.36
2024-04-25T09:03:01.122Z,7.33
2024-04-25T09:05:29.268Z,7.58
2024-04-25T09:07:57.090Z,7.80
2024-04-25T09:10:23.878Z,7.83
2024-04-25T09:12:50.595Z,8.04
2024-04-25T09:15:17.478Z,8.07
2024-04-25T09:17:44.245Z,7.91
2024-04-25T09:20:11.308Z,7.69
2024-04-25T09:22:38.707Z,7.66
2024-04-25T09:25:07.124Z,8.02
2024-04-25T09:27:33.888Z,8.42
2024-04-25T09:30:00.666Z,8.39
2024-04-25T09:32:27.457Z,8.34
2024-04-25T09:34:54.498Z,8.56
2024-04-25T09:37:22.170Z,8.54
2024-04-25T09:39:55.376Z,8.16
2024-04-25T09:42:27.890Z,8.11
2024-04-25T09:44:55.904Z,7.79
2024-04-25T09:47:28.482Z,8.00
2024-04-25T09:50:05.404Z,7.92
2024-04-25T09:52:34.886Z,7.78
2024-04-25T09:55:05.203Z,7.80
2024-04-25T09:57:32.999Z,7.51
2024-04-25T10:00:00.798Z,7.28
2024-04-25T10:02:28.619Z,6.97
2024-04-25T10:04:56.823Z,6.94
2024-04-25T10:07:23.688Z,7.20
2024-04-25T10:09:50.687Z,7.33
2024-04-25T10:12:29.872Z,7.38
2024-04-25T10:15:01.427Z,7.41
2024-04-25T10:17:33.711Z,7.54
2024-04-25T10:20:01.773Z,7.20
2024-04-25T10:22:29.476Z,7.14
2024-04-25T10:25:01.869Z,6.95
2024-04-25T10:27:29.126Z,6.52
2024-04-25T10:30:07.362Z,6.39
2024-04-25T10:32:35.116Z,6.04
2024-04-25T10:35:02.490Z,5.89
2024-04-25T10:37:29.541Z,5.71
2024-04-25T10:40:02.744Z,5.94
2024-04-25T10:42:29.510Z,6.27
2024-04-25T10:44:56.426Z,6.33
2024-04-25T10:47:23.554Z,6.83
2024-04-25T10:49:50.335Z,7.14
2024-04-25T10:52:17.061Z,7.50
2024-04-25T10:54:44.223Z,7.79
2024-04-25T10:57:16.032Z,8.04
2024-04-25T10:59:59.373Z,8.21
2024-04-25T11:02:35.862Z,8.37
2024-04-25T11:05:03.940Z,8.50
2024-04-25T11:07:30.649Z,8.56
2024-04-25T11:09:57.538Z,8.73
2024-04-25T11:12:24.421Z,8.79
2024-04-25T11:14:51.197Z,8.95
2024-04-25T11:17:18.237Z,9.12
2024-04-25T11:19:49.654Z,9.15
2024-04-25T11:22:29.727Z,9.18
2024-04-25T11:25:20.599Z,9.00
2024-04-25T11:27:49.162Z,8.98
2024-04-25T11:30:16.002Z,9.55
2024-04-25T11:32:45.302Z,9.99
2024-04-25T11:35:12.308Z,10.05
2024-04-25T11:37:39.834Z,10.34
2024-04-25T11:40:07.347Z,10.12
2024-04-25T11:42:34.124Z,9.93
2024-04-25T11:45:01.037Z,10.04
2024-04-25T11:47:27.878Z,10.38
2024-04-25T11:49:54.668Z,10.42
2024-04-25T11:52:21.408Z,10.43
2024-04-25T11:54:48.211Z,10.58
2024-04-25T11:57:16.287Z,10.73
2024-04-25T11:59:43.702Z,10.62
2024-04-25T12:02:13.130Z,10.11
2024-04-25T12:04:40.029Z,9.26
2024-04-25T12:07:07.018Z,9.26
2024-04-25T12:09:33.935Z,8.83
2024-04-25T12:12:00.890Z,8.69
2024-04-25T12:14:27.701Z,8.09
2024-04-25T12:16:55.177Z,8.07
2024-04-25T12:19:22.137Z,7.96
2024-04-25T12:21:49.125Z,8.36
2024-04-25T12:24:15.955Z,8.44
2024-04-25T12:26:45.007Z,8.64
2024-04-25T12:29:12.004Z,8.45
2024-04-25T12:31:38.794Z,8.66
2024-04-25T12:34:06.319Z,8.60
2024-04-25T12:36:34.203Z,8.43
2024-04-25T12:39:01.192Z,8.45
2024-04-25T12:41:27.947Z,8.67
2024-04-25T12:43:57.294Z,8.38
2024-04-25T12:46:25.449Z,8.01
2024-04-25T12:48:52.378Z,7.81
2024-04-25T12:51:19.682Z,7.73
2024-04-25T12:53:46.738Z,7.73
2024-04-25T12:56:13.497Z,7.48
2024-04-25T12:58:42.316Z,7.67
2024-04-25T13:01:09.890Z,7.83
2024-04-25T13:03:36.767Z,8.04
2024-04-25T13:06:03.791Z,8.03
2024-04-25T13:08:30.486Z,8.06
2024-04-25T13:10:57.224Z,8.44
2024-04-25T13:13:26.525Z,8.85
2024-04-25T13:15:53.467Z,8.95
2024-04-25T13:18:20.404Z,9.45
2024-04-25T13:20:47.404Z,9.67
2024-04-25T13:23:14.350Z,9.15
2024-04-25T13:25:41.161Z,9.16
2024-04-25T13:28:07.897Z,8.76
2024-04-25T13:30:34.646Z,8.82
2024-04-25T13:33:01.492Z,9.12
2024-04-25T13:35:28.316Z,8.67
2024-04-25T13:37:56.872Z,8.54
2024-04-25T13:40:24.757Z,8.31
2024-04-25T13:42:53.585Z,8.49
2024-04-25T13:45:20.456Z,8.43
2024-04-25T13:47:47.318Z,8.52
2024-04-25T13:50:17.931Z,8.77
2024-04-25T13:52:44.873Z,8.89
2024-04-25T13:55:11.770Z,9.03
2024-04-25T13:57:40.188Z,9.00
2024-04-25T14:00:07.625Z,8.90
2024-04-25T14:02:39.073Z,8.53
2024-04-25T14:05:05.833Z,8.24
2024-04-25T14:07:32.790Z,8.27
2024-04-25T14:10:00.957Z,8.30
2024-04-25T14:12:29.715Z,8.34
2024-04-25T14:14:57.073Z,8.41
2024-04-25T14:17:24.013Z,8.69
2024-04-25T14:19:50.893Z,8.95
2024-04-25T14:22:17.622Z,9.14
2024-04-25T14:24:46.973Z,9.42
2024-04-25T14:27:32.298Z,9.61
2024-04-25T14:29:59.143Z,10.39
2024-04-25T14:32:25.916Z,10.83
2024-04-25T14:34:52.708Z,11.36
2024-04-25T14:37:21.197Z,11.91
2024-04-25T14:39:47.899Z,12.26
2024-04-25T14:42:14.602Z,12.61
2024-04-25T14:44:41.296Z,12.34
2024-04-25T14:47:08.899Z,12.37
2024-04-25T14:49:35.819Z,11.70
2024-04-25T14:52:02.504Z,10.83
2024-04-25T14:54:29.213Z,10.33
2024-04-25T14:56:55.960Z,10.68
2024-04-25T14:59:24.007Z,10.96
2024-04-25T15:01:51.960Z,10.86
2024-04-25T15:04:18.680Z,9.77
2024-04-25T15:06:45.393Z,9.65
2024-04-25T15:09:13.523Z,10.44
2024-04-25T15:11:40.539Z,11.36
2024-04-25T15:14:07.335Z,11.95
2024-04-25T15:16:34.133Z,11.97
2024-04-25T15:19:00.854Z,11.77
2024-04-25T15:21:29.684Z,11.79
2024-04-25T15:23:56.533Z,11.25
2024-04-25T15:26:23.328Z,13.29
2024-04-25T15:28:50.013Z,15.70
2024-04-25T15:31:19.819Z,16.19
2024-04-25T15:33:46.529Z,17.40
2024-04-25T15:36:13.264Z,19.98
2024-04-25T15:38:40.041Z,19.79
2024-04-25T15:41:09.866Z,18.44
2024-04-25T15:43:38.225Z,16.25
2024-04-25T15:46:05.137Z,14.83
2024-04-25T15:48:31.943Z,14.38
2024-04-25T15:50:58.739Z,13.83
2024-04-25T15:53:25.543Z,12.63
2024-04-25T15:55:53.501Z,13.38
2024-04-25T15:58:21.879Z,16.35
2024-04-25T16:00:48.691Z,17.20
2024-04-25T16:03:15.608Z,17.31
2024-04-25T16:05:42.860Z,15.87
2024-04-25T16:08:12.375Z,16.32
2024-04-25T16:10:39.181Z,19.69
2024-04-25T16:13:05.986Z,21.64
2024-04-25T16:15:34.485Z,22.39
2024-04-25T16:18:01.292Z,22.49
2024-04-25T16:20:28.226Z,21.79
2024-04-25T16:22:56.231Z,23.75
2024-04-25T16:25:23.008Z,23.48
2024-04-25T16:27:49.735Z,20.67
2024-04-25T16:30:16.623Z,16.76
2024-04-25T16:32:43.583Z,15.23
2024-04-25T16:35:10.416Z,15.19
2024-04-25T16:37:37.124Z,17.48
2024-04-25T16:40:04.362Z,18.35
2024-04-25T16:42:31.051Z,19.91
2024-04-25T16:44:57.785Z,22.04
2024-04-25T16:47:24.822Z,21.74
2024-04-25T16:49:51.680Z,23.43
2024-04-25T16:52:18.442Z,24.83
2024-04-25T16:54:45.158Z,23.01
2024-04-25T16:57:11.822Z,21.59
2024-04-25T16:59:38.532Z,18.30
2024-04-25T17:02:06.872Z,17.17
2024-04-25T17:04:35.945Z,15.33
2024-04-25T17:07:02.799Z,13.95
2024-04-25T17:09:29.812Z,13.72
2024-04-25T17:11:56.612Z,15.13
2024-04-25T17:14:25.212Z,17.59
2024-04-25T17:16:52.143Z,18.24
2024-04-25T17:19:18.915Z,16.81
2024-04-25T17:21:45.637Z,15.77
2024-04-25T17:24:13.590Z,14.01
2024-04-25T17:26:41.846Z,12.35
2024-04-25T17:29:09.309Z,11.38
2024-04-25T17:31:38.080Z,10.52
2024-04-25T17:34:05.421Z,9.93
2024-04-25T17:36:32.254Z,9.70
2024-04-25T17:38:59.017Z,9.12
2024-04-25T17:41:26.040Z,8.86
2024-04-25T17:43:53.409Z,8.54
2024-04-25T17:46:20.182Z,8.31
2024-04-25T17:48:47.154Z,8.08
2024-04-25T17:51:21.553Z,7.94
2024-04-25T17:53:49.259Z,7.73
2024-04-25T17:56:16.139Z,7.40
2024-04-25T17:58:42.979Z,7.10
2024-04-25T18:01:09.780Z,6.76
2024-04-25T18:03:36.529Z,6.44
2024-04-25T18:06:05.171Z,6.23
2024-04-25T18:08:32.431Z,6.02
2024-04-25T18:10:59.246Z,5.82
2024-04-25T18:13:25.948Z,5.62
2024-04-25T18:15:52.626Z,5.42
2024-04-25T18:18:22.205Z,5.19
2024-04-25T18:20:49.178Z,5.03
2024-04-25T18:23:15.907Z,4.80
2024-04-25T18:25:44.295Z,4.56
2024-04-25T18:28:12.229Z,4.37
2024-04-25T18:30:38.974Z,4.16
2024-04-25T18:33:06.123Z,4.00
2024-04-25T18:35:32.920Z,3.88
2024-04-25T18:38:01.056Z,3.71
2024-04-25T18:40:28.612Z,3.57
2024-04-25T18:42:55.409Z,3.40
2024-04-25T18:45:22.206Z,3.24
2024-04-25T18:47:49.055Z,3.11
2024-04-25T18:50:16.927Z,3.00
2024-04-25T18:52:45.192Z,2.92
2024-04-25T18:55:12.156Z,2.75
2024-04-25T18:57:38.995Z,2.73
2024-04-25T19:00:06.777Z,2.63
2024-04-25T19:02:33.688Z,2.59
2024-04-25T19:05:00.448Z,2.54
2024-04-25T19:07:27.138Z,2.45
2024-04-25T19:09:53.853Z,2.41
2024-04-25T19:12:20.931Z,2.37
2024-04-25T19:14:51.047Z,2.38
2024-04-25T19:17:17.861Z,2.44
2024-04-25T19:19:47.200Z,2.43
2024-04-25T19:22:14.015Z,2.40
2024-04-25T19:24:43.239Z,2.45
2024-04-25T19:27:10.030Z,2.44
2024-04-25T19:29:38.781Z,2.42
2024-04-25T19:32:06.128Z,2.42
2024-04-25T19:34:32.937Z,2.37
2024-04-25T19:36:59.905Z,2.38
2024-04-25T19:39:26.685Z,2.31
2024-04-25T19:41:55.443Z,2.25
2024-04-25T19:44:23.504Z,2.18
2024-04-25T19:46:50.666Z,2.09
2024-04-25T19:49:19.808Z,2.07
2024-04-25T19:51:47.775Z,2.05
2024-04-25T19:54:19.403Z,2.02
2024-04-25T19:56:49.273Z,1.90
2024-04-25T19:59:16.393Z,1.82
2024-04-25T20:01:52.832Z,1.73
2024-04-25T20:04:21.759Z,1.79
2024-04-25T20:06:50.398Z,1.86
2024-04-25T20:09:20.767Z,1.87
2024-04-25T20:11:48.156Z,1.86
2024-04-25T20:14:15.067Z,1.85
2024-04-25T20:16:41.823Z,1.94
2024-04-25T20:19:27.063Z,1.89
2024-04-25T20:21:54.438Z,1.75
2024-04-25T20:24:21.495Z,1.66
2024-04-25T20:26:49.711Z,1.56
2024-04-25T20:29:16.849Z,1.44
2024-04-25T20:31:44.341Z,1.43
2024-04-25T20:34:11.198Z,1.33
2024-04-25T20:36:38.022Z,1.23
2024-04-25T20:39:04.777Z,1.25
2024-04-25T20:41:31.541Z,1.27
2024-04-25T20:43:58.345Z,1.28
2024-04-25T20:46:25.110Z,1.30
2024-04-25T20:48:53.017Z,1.25
2024-04-25T20:51:20.276Z,1.18
2024-04-25T20:53:47.205Z,1.17
2024-04-25T20:56:13.994Z,1.17
2024-04-25T20:58:41.306Z,1.19
2024-04-25T21:01:08.136Z,1.19
2024-04-25T21:03:35.241Z,1.21
2024-04-25T21:06:02.083Z,1.23
2024-04-25T21:08:32.448Z,1.25
2024-04-25T21:10:59.371Z,1.28
2024-04-25T21:13:28.824Z,1.38
2024-04-25T21:15:55.517Z,1.51
2024-04-25T21:18:22.398Z,1.62
2024-04-25T21:20:50.114Z,1.70
2024-04-25T21:23:17.158Z,1.80
2024-04-25T21:25:51.006Z,1.83
2024-04-25T21:28:21.047Z,1.82
2024-04-25T21:30:47.743Z,1.86
2024-04-25T21:33:14.806Z,1.88
2024-04-25T21:35:41.718Z,1.88
2024-04-25T21:38:08.401Z,1.87
2024-04-25T21:40:35.878Z,1.84
2024-04-25T21:43:02.718Z,1.86
2024-04-25T21:45:29.397Z,1.87
2024-04-25T21:50:22.803Z,1.90
2024-04-25T21:52:49.490Z,1.90
2024-04-25T21:55:16.233Z,1.87
2024-04-25T21:57:42.997Z,1.85
2024-04-25T22:00:09.909Z,1.86
2024-04-25T22:02:37.022Z,1.84
2024-04-25T22:05:03.840Z,1.82
2024-04-25T22:07:30.530Z,1.80
2024-04-25T22:09:57.264Z,1.84
2024-04-25T22:12:24.621Z,1.89
2024-04-25T22:14:52.233Z,1.93
2024-04-25T22:17:19.109Z,1.95
2024-04-25T22:19:45.990Z,1.94
2024-04-25T22:22:12.732Z,1.92
2024-04-25T22:24:40.585Z,1.94
2024-04-25T22:27:07.531Z,1.89
2024-04-25T22:29:34.262Z,1.97
2024-04-25T22:32:01.053Z,1.96
2024-04-25T22:34:27.840Z,2.02
2024-04-25T22:36:54.515Z,2.10
2024-04-25T22:39:21.245Z,2.13
2024-04-25T22:41:47.984Z,2.17
2024-04-25T22:44:14.788Z,2.15
2024-04-25T22:46:41.458Z,2.18
2024-04-25T22:49:09.677Z,2.07
2024-04-25T22:51:40.497Z,2.07
2024-04-25T22:54:07.328Z,2.12
2024-04-25T22:56:34.124Z,2.10
2024-04-25T22:59:01.426Z,2.09
2024-04-25T23:01:30.552Z,1.96
2024-04-25T23:03:57.279Z,2.02
2024-04-25T23:06:23.964Z,2.06
2024-04-25T23:08:50.734Z,2.07
2024-04-25T23:11:20.758Z,2.00
2024-04-25T23:13:47.582Z,1.97
2024-04-25T23:16:15.297Z,1.94
2024-04-25T23:18:42.535Z,1.84
2024-04-25T23:21:09.389Z,1.84
2024-04-25T23:23:36.213Z,1.93
2024-04-25T23:26:03.120Z,1.87
2024-04-25T23:28:29.884Z,1.92
2024-04-25T23:30:56.569Z,1.94
2024-04-25T23:33:23.870Z,1.98
2024-04-25T23:35:51.114Z,1.99
2024-04-25T23:38:18.744Z,2.01
2024-04-25T23:40:45.502Z,2.02
2024-04-25T23:43:12.255Z,1.99
2024-04-25T23:45:38.962Z,1.97
2024-04-25T23:48:06.357Z,1.99
2024-04-25T23:50:33.213Z,1.96
2024-04-25T23:53:00.014Z,1.97
2024-04-25T23:55:26.741Z,1.96
2024-04-25T23:57:53.451Z,1.94
